sensor_id;sensor_type;location;lat;lon;timestamp;P1;durP1;ratioP1;P2;durP2;ratioP2
1366;SDS011;16877;48.810;9.282;2023-04-03T00:01:20;2.93;;;1.47;;
1366;SDS011;16877;48.810;9.282;2023-04-03T00:03:47;3.80;;;2.13;;
1366;SDS011;16877;48.810;9.282;2023-04-03T00:06:17;3.23;;;1.90;;
1366;SDS011;16877;48.810;9.282;2023-04-03T00:08:45;2.97;;;2.07;;
1366;SDS011;16877;48.810;9.282;2023-04-03T00:11:12;2.90;;;2.00;;
1366;SDS011;16877;48.810;9.282;2023-04-03T00:13:40;2.93;;;1.80;;
1366;SDS011;16877;48.810;9.282;2023-04-03T00:16:08;3.27;;;2.00;;
1366;SDS011;16877;48.810;9.282;2023-04-03T00:18:38;3.90;;;1.63;;
1366;SDS011;16877;48.810;9.282;2023-04-03T00:21:06;3.30;;;2.03;;
1366;SDS011;16877;48.810;9.282;2023-04-03T00:23:34;3.73;;;1.93;;
1366;SDS011;16877;48.810;9.282;2023-04-03T00:26:01;5.20;;;1.83;;
1366;SDS011;16877;48.810;9.282;2023-04-03T00:28:29;3.13;;;2.43;;
1366;SDS011;16877;48.810;9.282;2023-04-03T00:30:56;3.30;;;1.97;;
1366;SDS011;16877;48.810;9.282;2023-04-03T00:33:24;3.20;;;1.90;;
1366;SDS011;16877;48.810;9.282;2023-04-03T00:35:53;2.20;;;1.60;;
1366;SDS011;16877;48.810;9.282;2023-04-03T00:38:20;4.90;;;1.90;;
1366;SDS011;16877;48.810;9.282;2023-04-03T00:40:48;2.53;;;1.77;;
1366;SDS011;16877;48.810;9.282;2023-04-03T00:43:18;2.87;;;1.90;;
1366;SDS011;16877;48.810;9.282;2023-04-03T00:45:50;3.10;;;1.83;;
1366;SDS011;16877;48.810;9.282;2023-04-03T00:48:20;3.20;;;2.13;;
1366;SDS011;16877;48.810;9.282;2023-04-03T00:50:50;3.10;;;1.93;;
1366;SDS011;16877;48.810;9.282;2023-04-03T00:53:21;3.00;;;2.00;;
1366;SDS011;16877;48.810;9.282;2023-04-03T00:55:51;2.67;;;1.57;;
1366;SDS011;16877;48.810;9.282;2023-04-03T00:58:21;2.67;;;2.03;;
1366;SDS011;16877;48.810;9.282;2023-04-03T01:00:55;2.43;;;1.83;;
1366;SDS011;16877;48.810;9.282;2023-04-03T01:03:25;3.83;;;2.03;;
1366;SDS011;16877;48.810;9.282;2023-04-03T01:05:54;3.00;;;2.30;;
1366;SDS011;16877;48.810;9.282;2023-04-03T01:08:21;3.50;;;2.20;;
1366;SDS011;16877;48.810;9.282;2023-04-03T01:10:49;3.67;;;2.40;;
1366;SDS011;16877;48.810;9.282;2023-04-03T01:13:17;2.63;;;1.80;;
1366;SDS011;16877;48.810;9.282;2023-04-03T01:15:47;3.17;;;1.80;;
1366;SDS011;16877;48.810;9.282;2023-04-03T01:18:14;3.80;;;2.13;;
1366;SDS011;16877;48.810;9.282;2023-04-03T01:24:05;3.60;;;2.20;;
1366;SDS011;16877;48.810;9.282;2023-04-03T01:26:40;2.43;;;1.63;;
1366;SDS011;16877;48.810;9.282;2023-04-03T01:29:08;3.30;;;2.13;;
1366;SDS011;16877;48.810;9.282;2023-04-03T01:34:32;2.40;;;1.73;;
1366;SDS011;16877;48.810;9.282;2023-04-03T01:36:59;2.40;;;2.00;;
1366;SDS011;16877;48.810;9.282;2023-04-03T01:39:26;3.77;;;2.43;;
1366;SDS011;16877;48.810;9.282;2023-04-03T01:41:54;3.40;;;2.40;;
1366;SDS011;16877;48.810;9.282;2023-04-03T01:44:21;5.50;;;2.30;;
1366;SDS011;16877;48.810;9.282;2023-04-03T01:46:52;5.27;;;2.17;;
1366;SDS011;16877;48.810;9.282;2023-04-03T01:52:31;2.40;;;1.73;;
1366;SDS011;16877;48.810;9.282;2023-04-03T01:55:02;3.50;;;2.20;;
1366;SDS011;16877;48.810;9.282;2023-04-03T01:57:32;3.13;;;1.87;;
1366;SDS011;16877;48.810;9.282;2023-04-03T02:00:14;3.20;;;2.20;;
1366;SDS011;16877;48.810;9.282;2023-04-03T02:02:44;2.90;;;2.07;;
1366;SDS011;16877;48.810;9.282;2023-04-03T02:05:13;2.97;;;2.10;;
1366;SDS011;16877;48.810;9.282;2023-04-03T02:07:42;3.00;;;1.87;;
1366;SDS011;16877;48.810;9.282;2023-04-03T02:10:13;3.27;;;2.40;;
1366;SDS011;16877;48.810;9.282;2023-04-03T02:12:44;2.63;;;1.83;;
1366;SDS011;16877;48.810;9.282;2023-04-03T02:15:12;2.40;;;1.77;;
1366;SDS011;16877;48.810;9.282;2023-04-03T02:17:39;3.30;;;2.20;;
1366;SDS011;16877;48.810;9.282;2023-04-03T02:20:07;4.90;;;2.00;;
1366;SDS011;16877;48.810;9.282;2023-04-03T02:22:36;3.30;;;1.90;;
1366;SDS011;16877;48.810;9.282;2023-04-03T02:25:04;2.57;;;1.97;;
1366;SDS011;16877;48.810;9.282;2023-04-03T02:27:34;3.73;;;2.30;;
1366;SDS011;16877;48.810;9.282;2023-04-03T02:30:02;3.77;;;1.97;;
1366;SDS011;16877;48.810;9.282;2023-04-03T02:32:30;2.47;;;1.63;;
1366;SDS011;16877;48.810;9.282;2023-04-03T02:34:57;3.13;;;2.00;;
1366;SDS011;16877;48.810;9.282;2023-04-03T02:37:28;4.13;;;2.10;;
1366;SDS011;16877;48.810;9.282;2023-04-03T02:39:58;2.80;;;1.80;;
1366;SDS011;16877;48.810;9.282;2023-04-03T02:42:25;3.27;;;2.20;;
1366;SDS011;16877;48.810;9.282;2023-04-03T02:44:53;2.40;;;1.63;;
1366;SDS011;16877;48.810;9.282;2023-04-03T02:47:20;3.80;;;2.20;;
1366;SDS011;16877;48.810;9.282;2023-04-03T02:49:48;3.13;;;1.93;;
1366;SDS011;16877;48.810;9.282;2023-04-03T02:52:15;3.60;;;2.10;;
1366;SDS011;16877;48.810;9.282;2023-04-03T02:54:43;2.90;;;2.07;;
1366;SDS011;16877;48.810;9.282;2023-04-03T02:57:12;2.93;;;1.83;;
1366;SDS011;16877;48.810;9.282;2023-04-03T02:59:40;2.67;;;1.97;;
1366;SDS011;16877;48.810;9.282;2023-04-03T03:02:07;2.57;;;1.93;;
1366;SDS011;16877;48.810;9.282;2023-04-03T03:04:49;2.30;;;1.60;;
1366;SDS011;16877;48.810;9.282;2023-04-03T03:07:19;4.17;;;2.60;;
1366;SDS011;16877;48.810;9.282;2023-04-03T03:09:48;3.80;;;1.97;;
1366;SDS011;16877;48.810;9.282;2023-04-03T03:12:18;3.20;;;1.83;;
1366;SDS011;16877;48.810;9.282;2023-04-03T03:14:46;2.90;;;2.00;;
1366;SDS011;16877;48.810;9.282;2023-04-03T03:17:13;3.80;;;2.23;;
1366;SDS011;16877;48.810;9.282;2023-04-03T03:19:41;4.57;;;2.30;;
1366;SDS011;16877;48.810;9.282;2023-04-03T03:22:11;2.47;;;1.60;;
1366;SDS011;16877;48.810;9.282;2023-04-03T03:24:39;3.67;;;2.30;;
1366;SDS011;16877;48.810;9.282;2023-04-03T03:27:06;3.13;;;2.03;;
1366;SDS011;16877;48.810;9.282;2023-04-03T03:29:35;2.70;;;1.90;;
1366;SDS011;16877;48.810;9.282;2023-04-03T03:32:02;2.70;;;1.80;;
1366;SDS011;16877;48.810;9.282;2023-04-03T03:34:30;3.23;;;2.03;;
1366;SDS011;16877;48.810;9.282;2023-04-03T03:36:58;3.30;;;2.00;;
1366;SDS011;16877;48.810;9.282;2023-04-03T03:39:25;3.70;;;1.83;;
1366;SDS011;16877;48.810;9.282;2023-04-03T03:41:53;3.13;;;2.07;;
1366;SDS011;16877;48.810;9.282;2023-04-03T03:44:20;2.87;;;1.60;;
1366;SDS011;16877;48.810;9.282;2023-04-03T03:46:59;3.40;;;1.83;;
1366;SDS011;16877;48.810;9.282;2023-04-03T03:49:29;3.63;;;2.00;;
1366;SDS011;16877;48.810;9.282;2023-04-03T03:51:56;3.40;;;1.80;;
1366;SDS011;16877;48.810;9.282;2023-04-03T03:54:23;3.37;;;2.13;;
1366;SDS011;16877;48.810;9.282;2023-04-03T03:56:50;3.57;;;2.40;;
1366;SDS011;16877;48.810;9.282;2023-04-03T03:59:18;3.43;;;1.90;;
1366;SDS011;16877;48.810;9.282;2023-04-03T04:01:45;2.97;;;2.13;;
1366;SDS011;16877;48.810;9.282;2023-04-03T04:04:14;3.10;;;2.03;;
1366;SDS011;16877;48.810;9.282;2023-04-03T04:06:42;3.50;;;1.83;;
1366;SDS011;16877;48.810;9.282;2023-04-03T04:09:11;3.13;;;2.30;;
1366;SDS011;16877;48.810;9.282;2023-04-03T04:11:39;2.80;;;1.40;;
1366;SDS011;16877;48.810;9.282;2023-04-03T04:14:06;2.77;;;2.10;;
1366;SDS011;16877;48.810;9.282;2023-04-03T04:16:35;4.37;;;2.27;;
1366;SDS011;16877;48.810;9.282;2023-04-03T04:19:03;4.37;;;2.40;;
1366;SDS011;16877;48.810;9.282;2023-04-03T04:21:32;3.87;;;1.97;;
1366;SDS011;16877;48.810;9.282;2023-04-03T04:24:02;3.07;;;1.90;;
1366;SDS011;16877;48.810;9.282;2023-04-03T04:26:30;2.93;;;1.73;;
1366;SDS011;16877;48.810;9.282;2023-04-03T04:28:57;2.50;;;1.60;;
1366;SDS011;16877;48.810;9.282;2023-04-03T04:31:25;4.63;;;2.00;;
1366;SDS011;16877;48.810;9.282;2023-04-03T04:33:52;3.80;;;1.77;;
1366;SDS011;16877;48.810;9.282;2023-04-03T04:36:19;3.33;;;2.40;;
1366;SDS011;16877;48.810;9.282;2023-04-03T04:38:49;3.07;;;2.03;;
1366;SDS011;16877;48.810;9.282;2023-04-03T04:41:18;3.60;;;2.00;;
1366;SDS011;16877;48.810;9.282;2023-04-03T04:43:46;4.60;;;2.57;;
1366;SDS011;16877;48.810;9.282;2023-04-03T04:46:13;2.40;;;1.70;;
1366;SDS011;16877;48.810;9.282;2023-04-03T04:48:42;2.30;;;1.83;;
1366;SDS011;16877;48.810;9.282;2023-04-03T04:51:09;2.83;;;2.00;;
1366;SDS011;16877;48.810;9.282;2023-04-03T04:53:37;3.17;;;1.90;;
1366;SDS011;16877;48.810;9.282;2023-04-03T04:56:07;2.53;;;1.90;;
1366;SDS011;16877;48.810;9.282;2023-04-03T04:58:38;3.67;;;2.07;;
1366;SDS011;16877;48.810;9.282;2023-04-03T05:01:07;2.87;;;1.60;;
1366;SDS011;16877;48.810;9.282;2023-04-03T05:03:35;3.97;;;1.90;;
1366;SDS011;16877;48.810;9.282;2023-04-03T05:06:04;3.30;;;1.70;;
1366;SDS011;16877;48.810;9.282;2023-04-03T05:08:34;3.17;;;2.40;;
1366;SDS011;16877;48.810;9.282;2023-04-03T05:11:13;3.07;;;2.10;;
1366;SDS011;16877;48.810;9.282;2023-04-03T05:13:40;2.67;;;1.83;;
1366;SDS011;16877;48.810;9.282;2023-04-03T05:16:18;3.40;;;2.10;;
1366;SDS011;16877;48.810;9.282;2023-04-03T05:19:00;3.47;;;2.00;;
1366;SDS011;16877;48.810;9.282;2023-04-03T05:21:28;2.80;;;2.00;;
1366;SDS011;16877;48.810;9.282;2023-04-03T05:23:57;2.63;;;1.90;;
1366;SDS011;16877;48.810;9.282;2023-04-03T05:26:27;6.13;;;2.20;;
1366;SDS011;16877;48.810;9.282;2023-04-03T05:28:53;3.43;;;2.50;;
1366;SDS011;16877;48.810;9.282;2023-04-03T05:31:21;3.70;;;2.00;;
1366;SDS011;16877;48.810;9.282;2023-04-03T05:33:49;3.20;;;2.47;;
1366;SDS011;16877;48.810;9.282;2023-04-03T05:36:16;3.03;;;2.20;;
1366;SDS011;16877;48.810;9.282;2023-04-03T05:38:44;3.70;;;1.93;;
1366;SDS011;16877;48.810;9.282;2023-04-03T05:41:11;3.67;;;2.13;;
1366;SDS011;16877;48.810;9.282;2023-04-03T05:43:40;3.43;;;1.67;;
1366;SDS011;16877;48.810;9.282;2023-04-03T05:46:09;3.80;;;2.17;;
1366;SDS011;16877;48.810;9.282;2023-04-03T05:48:40;4.40;;;2.50;;
1366;SDS011;16877;48.810;9.282;2023-04-03T05:51:25;2.90;;;1.77;;
1366;SDS011;16877;48.810;9.282;2023-04-03T05:54:02;2.80;;;1.97;;
1366;SDS011;16877;48.810;9.282;2023-04-03T05:56:50;3.40;;;1.73;;
1366;SDS011;16877;48.810;9.282;2023-04-03T05:59:24;3.07;;;1.70;;
1366;SDS011;16877;48.810;9.282;2023-04-03T06:01:55;2.67;;;1.70;;
1366;SDS011;16877;48.810;9.282;2023-04-03T06:04:34;3.50;;;1.83;;
1366;SDS011;16877;48.810;9.282;2023-04-03T06:07:03;2.30;;;1.77;;
1366;SDS011;16877;48.810;9.282;2023-04-03T06:09:46;2.83;;;1.77;;
1366;SDS011;16877;48.810;9.282;2023-04-03T06:12:22;3.50;;;2.40;;
1366;SDS011;16877;48.810;9.282;2023-04-03T06:15:13;2.97;;;1.97;;
1366;SDS011;16877;48.810;9.282;2023-04-03T06:17:59;2.97;;;1.97;;
1366;SDS011;16877;48.810;9.282;2023-04-03T06:20:40;2.50;;;1.87;;
1366;SDS011;16877;48.810;9.282;2023-04-03T06:23:13;2.70;;;1.80;;
1366;SDS011;16877;48.810;9.282;2023-04-03T06:25:41;2.67;;;1.83;;
1366;SDS011;16877;48.810;9.282;2023-04-03T06:28:11;3.30;;;2.00;;
1366;SDS011;16877;48.810;9.282;2023-04-03T06:30:42;3.20;;;1.70;;
1366;SDS011;16877;48.810;9.282;2023-04-03T06:33:10;3.20;;;1.90;;
1366;SDS011;16877;48.810;9.282;2023-04-03T06:35:49;3.50;;;2.00;;
1366;SDS011;16877;48.810;9.282;2023-04-03T06:38:22;2.87;;;2.00;;
1366;SDS011;16877;48.810;9.282;2023-04-03T06:41:05;3.10;;;2.10;;
1366;SDS011;16877;48.810;9.282;2023-04-03T06:43:42;2.50;;;1.50;;
1366;SDS011;16877;48.810;9.282;2023-04-03T06:46:16;3.20;;;1.83;;
1366;SDS011;16877;48.810;9.282;2023-04-03T06:48:45;3.90;;;2.20;;
1366;SDS011;16877;48.810;9.282;2023-04-03T06:53:59;2.80;;;1.83;;
1366;SDS011;16877;48.810;9.282;2023-04-03T06:56:42;2.50;;;1.60;;
1366;SDS011;16877;48.810;9.282;2023-04-03T06:59:12;4.20;;;2.03;;
1366;SDS011;16877;48.810;9.282;2023-04-03T07:01:44;4.20;;;1.50;;
1366;SDS011;16877;48.810;9.282;2023-04-03T07:04:23;8.23;;;2.23;;
1366;SDS011;16877;48.810;9.282;2023-04-03T07:06:52;6.87;;;2.10;;
1366;SDS011;16877;48.810;9.282;2023-04-03T07:09:21;3.93;;;2.70;;
1366;SDS011;16877;48.810;9.282;2023-04-03T07:11:48;3.60;;;2.17;;
1366;SDS011;16877;48.810;9.282;2023-04-03T07:14:19;4.63;;;2.30;;
1366;SDS011;16877;48.810;9.282;2023-04-03T07:17:02;2.70;;;1.63;;
1366;SDS011;16877;48.810;9.282;2023-04-03T07:19:36;4.23;;;2.30;;
1366;SDS011;16877;48.810;9.282;2023-04-03T07:22:03;4.00;;;1.90;;
1366;SDS011;16877;48.810;9.282;2023-04-03T07:24:31;3.80;;;2.33;;
1366;SDS011;16877;48.810;9.282;2023-04-03T07:26:59;2.93;;;1.57;;
1366;SDS011;16877;48.810;9.282;2023-04-03T07:29:27;4.90;;;2.30;;
1366;SDS011;16877;48.810;9.282;2023-04-03T07:31:55;2.33;;;1.60;;
1366;SDS011;16877;48.810;9.282;2023-04-03T07:34:37;3.30;;;1.87;;
1366;SDS011;16877;48.810;9.282;2023-04-03T07:37:05;2.27;;;1.10;;
1366;SDS011;16877;48.810;9.282;2023-04-03T07:39:35;4.10;;;2.17;;
1366;SDS011;16877;48.810;9.282;2023-04-03T07:42:08;5.53;;;2.00;;
1366;SDS011;16877;48.810;9.282;2023-04-03T07:44:45;3.33;;;2.10;;
1366;SDS011;16877;48.810;9.282;2023-04-03T07:47:14;3.53;;;2.20;;
1366;SDS011;16877;48.810;9.282;2023-04-03T07:49:50;3.27;;;1.97;;
1366;SDS011;16877;48.810;9.282;2023-04-03T07:52:22;4.10;;;1.60;;
1366;SDS011;16877;48.810;9.282;2023-04-03T07:54:55;2.77;;;1.43;;
1366;SDS011;16877;48.810;9.282;2023-04-03T07:57:23;3.80;;;1.80;;
1366;SDS011;16877;48.810;9.282;2023-04-03T07:59:57;4.00;;;1.90;;
1366;SDS011;16877;48.810;9.282;2023-04-03T08:02:35;3.17;;;1.80;;
1366;SDS011;16877;48.810;9.282;2023-04-03T08:05:07;3.90;;;2.10;;
1366;SDS011;16877;48.810;9.282;2023-04-03T08:07:43;3.03;;;1.80;;
1366;SDS011;16877;48.810;9.282;2023-04-03T08:10:12;3.30;;;1.90;;
1366;SDS011;16877;48.810;9.282;2023-04-03T08:12:45;2.80;;;1.70;;
1366;SDS011;16877;48.810;9.282;2023-04-03T08:15:13;2.83;;;2.00;;
1366;SDS011;16877;48.810;9.282;2023-04-03T08:17:41;4.30;;;2.70;;
1366;SDS011;16877;48.810;9.282;2023-04-03T08:20:13;3.60;;;1.80;;
1366;SDS011;16877;48.810;9.282;2023-04-03T08:22:46;4.27;;;2.33;;
1366;SDS011;16877;48.810;9.282;2023-04-03T08:25:13;4.23;;;2.30;;
1366;SDS011;16877;48.810;9.282;2023-04-03T08:27:42;4.73;;;2.23;;
1366;SDS011;16877;48.810;9.282;2023-04-03T08:30:11;3.20;;;2.00;;
1366;SDS011;16877;48.810;9.282;2023-04-03T08:32:40;2.90;;;2.27;;
1366;SDS011;16877;48.810;9.282;2023-04-03T08:35:26;4.50;;;2.37;;
1366;SDS011;16877;48.810;9.282;2023-04-03T08:37:54;4.40;;;2.63;;
1366;SDS011;16877;48.810;9.282;2023-04-03T08:40:23;4.40;;;2.50;;
1366;SDS011;16877;48.810;9.282;2023-04-03T08:42:53;2.93;;;2.00;;
1366;SDS011;16877;48.810;9.282;2023-04-03T08:45:43;5.20;;;2.40;;
1366;SDS011;16877;48.810;9.282;2023-04-03T08:48:17;4.30;;;2.00;;
1366;SDS011;16877;48.810;9.282;2023-04-03T08:50:51;3.97;;;1.70;;
1366;SDS011;16877;48.810;9.282;2023-04-03T08:53:22;5.90;;;1.93;;
1366;SDS011;16877;48.810;9.282;2023-04-03T08:55:56;4.27;;;1.97;;
1366;SDS011;16877;48.810;9.282;2023-04-03T08:58:25;3.40;;;2.00;;
1366;SDS011;16877;48.810;9.282;2023-04-03T09:00:55;5.30;;;2.20;;
1366;SDS011;16877;48.810;9.282;2023-04-03T09:03:30;4.07;;;1.83;;
1366;SDS011;16877;48.810;9.282;2023-04-03T09:06:00;3.60;;;1.87;;
1366;SDS011;16877;48.810;9.282;2023-04-03T09:08:30;3.17;;;1.77;;
1366;SDS011;16877;48.810;9.282;2023-04-03T09:11:06;4.10;;;2.03;;
1366;SDS011;16877;48.810;9.282;2023-04-03T09:13:41;3.73;;;1.83;;
1366;SDS011;16877;48.810;9.282;2023-04-03T09:16:20;3.10;;;1.90;;
1366;SDS011;16877;48.810;9.282;2023-04-03T09:18:57;3.37;;;1.70;;
1366;SDS011;16877;48.810;9.282;2023-04-03T09:21:35;2.60;;;1.43;;
1366;SDS011;16877;48.810;9.282;2023-04-03T09:24:04;2.70;;;1.70;;
1366;SDS011;16877;48.810;9.282;2023-04-03T09:26:34;4.60;;;2.37;;
1366;SDS011;16877;48.810;9.282;2023-04-03T09:29:08;3.40;;;2.03;;
1366;SDS011;16877;48.810;9.282;2023-04-03T09:31:41;3.97;;;2.00;;
1366;SDS011;16877;48.810;9.282;2023-04-03T09:34:13;2.67;;;1.63;;
1366;SDS011;16877;48.810;9.282;2023-04-03T09:36:50;2.57;;;2.00;;
1366;SDS011;16877;48.810;9.282;2023-04-03T09:39:19;3.57;;;2.10;;
1366;SDS011;16877;48.810;9.282;2023-04-03T09:41:54;2.80;;;1.87;;
1366;SDS011;16877;48.810;9.282;2023-04-03T09:44:25;4.17;;;2.00;;
1366;SDS011;16877;48.810;9.282;2023-04-03T09:46:55;4.17;;;1.90;;
1366;SDS011;16877;48.810;9.282;2023-04-03T09:49:23;5.37;;;2.10;;
1366;SDS011;16877;48.810;9.282;2023-04-03T09:51:52;3.63;;;2.00;;
1366;SDS011;16877;48.810;9.282;2023-04-03T09:54:24;3.33;;;1.70;;
1366;SDS011;16877;48.810;9.282;2023-04-03T09:57:07;3.50;;;1.87;;
1366;SDS011;16877;48.810;9.282;2023-04-03T09:59:37;5.70;;;1.90;;
1366;SDS011;16877;48.810;9.282;2023-04-03T10:02:28;3.77;;;1.97;;
1366;SDS011;16877;48.810;9.282;2023-04-03T10:05:02;3.87;;;1.77;;
1366;SDS011;16877;48.810;9.282;2023-04-03T10:07:33;3.77;;;2.03;;
1366;SDS011;16877;48.810;9.282;2023-04-03T10:10:14;2.47;;;1.33;;
1366;SDS011;16877;48.810;9.282;2023-04-03T10:13:03;3.27;;;1.97;;
1366;SDS011;16877;48.810;9.282;2023-04-03T10:15:34;3.03;;;1.67;;
1366;SDS011;16877;48.810;9.282;2023-04-03T10:18:17;3.07;;;2.00;;
1366;SDS011;16877;48.810;9.282;2023-04-03T10:23:55;3.33;;;1.83;;
1366;SDS011;16877;48.810;9.282;2023-04-03T10:26:32;3.60;;;2.37;;
1366;SDS011;16877;48.810;9.282;2023-04-03T10:29:07;3.67;;;2.33;;
1366;SDS011;16877;48.810;9.282;2023-04-03T10:31:46;4.87;;;2.70;;
1366;SDS011;16877;48.810;9.282;2023-04-03T10:34:24;3.73;;;1.80;;
1366;SDS011;16877;48.810;9.282;2023-04-03T10:36:59;4.17;;;2.30;;
1366;SDS011;16877;48.810;9.282;2023-04-03T10:39:39;2.83;;;1.57;;
1366;SDS011;16877;48.810;9.282;2023-04-03T10:42:13;3.73;;;2.00;;
1366;SDS011;16877;48.810;9.282;2023-04-03T10:44:58;3.97;;;2.00;;
1366;SDS011;16877;48.810;9.282;2023-04-03T10:47:34;2.60;;;1.63;;
1366;SDS011;16877;48.810;9.282;2023-04-03T10:50:15;4.03;;;1.47;;
1366;SDS011;16877;48.810;9.282;2023-04-03T10:53:08;3.20;;;1.70;;
1366;SDS011;16877;48.810;9.282;2023-04-03T10:55:48;3.90;;;1.60;;
1366;SDS011;16877;48.810;9.282;2023-04-03T10:58:26;3.53;;;1.80;;
1366;SDS011;16877;48.810;9.282;2023-04-03T11:01:06;3.10;;;1.90;;
1366;SDS011;16877;48.810;9.282;2023-04-03T11:03:38;3.43;;;1.57;;
1366;SDS011;16877;48.810;9.282;2023-04-03T11:06:09;3.40;;;1.90;;
1366;SDS011;16877;48.810;9.282;2023-04-03T11:08:42;3.97;;;1.70;;
1366;SDS011;16877;48.810;9.282;2023-04-03T11:11:21;3.57;;;1.77;;
1366;SDS011;16877;48.810;9.282;2023-04-03T11:13:59;3.37;;;1.87;;
1366;SDS011;16877;48.810;9.282;2023-04-03T11:16:30;2.80;;;1.53;;
1366;SDS011;16877;48.810;9.282;2023-04-03T11:19:01;2.77;;;1.60;;
1366;SDS011;16877;48.810;9.282;2023-04-03T11:21:36;2.73;;;1.33;;
1366;SDS011;16877;48.810;9.282;2023-04-03T11:24:11;3.97;;;2.33;;
1366;SDS011;16877;48.810;9.282;2023-04-03T11:26:48;4.27;;;1.57;;
1366;SDS011;16877;48.810;9.282;2023-04-03T11:29:22;3.93;;;1.67;;
1366;SDS011;16877;48.810;9.282;2023-04-03T11:32:01;3.93;;;2.03;;
1366;SDS011;16877;48.810;9.282;2023-04-03T11:34:49;2.43;;;1.50;;
1366;SDS011;16877;48.810;9.282;2023-04-03T11:37:21;3.90;;;1.50;;
1366;SDS011;16877;48.810;9.282;2023-04-03T11:39:54;2.90;;;1.80;;
1366;SDS011;16877;48.810;9.282;2023-04-03T11:42:30;3.03;;;1.50;;
1366;SDS011;16877;48.810;9.282;2023-04-03T11:48:00;4.47;;;1.97;;
1366;SDS011;16877;48.810;9.282;2023-04-03T11:53:28;3.33;;;1.87;;
1366;SDS011;16877;48.810;9.282;2023-04-03T11:56:03;4.20;;;2.47;;
1366;SDS011;16877;48.810;9.282;2023-04-03T12:01:52;5.33;;;2.33;;
1366;SDS011;16877;48.810;9.282;2023-04-03T12:04:29;5.63;;;3.43;;
1366;SDS011;16877;48.810;9.282;2023-04-03T12:07:01;4.80;;;2.87;;
1366;SDS011;16877;48.810;9.282;2023-04-03T12:12:41;4.60;;;3.03;;
1366;SDS011;16877;48.810;9.282;2023-04-03T12:15:16;5.87;;;3.40;;
1366;SDS011;16877;48.810;9.282;2023-04-03T12:17:50;4.57;;;3.20;;
1366;SDS011;16877;48.810;9.282;2023-04-03T12:23:28;5.30;;;3.00;;
1366;SDS011;16877;48.810;9.282;2023-04-03T12:26:01;5.30;;;2.83;;
1366;SDS011;16877;48.810;9.282;2023-04-03T12:29:02;6.70;;;3.30;;
1366;SDS011;16877;48.810;9.282;2023-04-03T12:31:53;4.70;;;3.20;;
1366;SDS011;16877;48.810;9.282;2023-04-03T12:34:43;7.03;;;3.90;;
1366;SDS011;16877;48.810;9.282;2023-04-03T12:37:20;6.40;;;3.70;;
1366;SDS011;16877;48.810;9.282;2023-04-03T12:40:15;6.70;;;3.43;;
1366;SDS011;16877;48.810;9.282;2023-04-03T12:43:00;6.57;;;3.60;;
1366;SDS011;16877;48.810;9.282;2023-04-03T12:45:40;5.70;;;3.20;;
1366;SDS011;16877;48.810;9.282;2023-04-03T12:48:22;7.00;;;3.40;;
1366;SDS011;16877;48.810;9.282;2023-04-03T12:50:52;6.47;;;3.47;;
1366;SDS011;16877;48.810;9.282;2023-04-03T12:53:21;7.13;;;3.43;;
1366;SDS011;16877;48.810;9.282;2023-04-03T12:55:53;7.53;;;4.10;;
1366;SDS011;16877;48.810;9.282;2023-04-03T12:58:21;8.20;;;3.97;;
1366;SDS011;16877;48.810;9.282;2023-04-03T13:00:59;7.27;;;4.20;;
1366;SDS011;16877;48.810;9.282;2023-04-03T13:03:33;6.47;;;3.90;;
1366;SDS011;16877;48.810;9.282;2023-04-03T13:06:04;9.30;;;4.03;;
1366;SDS011;16877;48.810;9.282;2023-04-03T13:08:51;7.90;;;3.83;;
1366;SDS011;16877;48.810;9.282;2023-04-03T13:11:22;4.60;;;3.00;;
1366;SDS011;16877;48.810;9.282;2023-04-03T13:13:57;5.33;;;3.80;;
1366;SDS011;16877;48.810;9.282;2023-04-03T13:16:53;5.67;;;3.43;;
1366;SDS011;16877;48.810;9.282;2023-04-03T13:19:40;6.90;;;3.30;;
1366;SDS011;16877;48.810;9.282;2023-04-03T13:24:58;5.63;;;3.53;;
1366;SDS011;16877;48.810;9.282;2023-04-03T13:27:38;7.50;;;4.20;;
1366;SDS011;16877;48.810;9.282;2023-04-03T13:30:21;5.33;;;3.10;;
1366;SDS011;16877;48.810;9.282;2023-04-03T13:32:55;6.30;;;3.03;;
1366;SDS011;16877;48.810;9.282;2023-04-03T13:38:24;18.73;;;10.70;;
1366;SDS011;16877;48.810;9.282;2023-04-03T13:40:57;14.63;;;7.07;;
1366;SDS011;16877;48.810;9.282;2023-04-03T13:43:28;12.77;;;7.07;;
1366;SDS011;16877;48.810;9.282;2023-04-03T13:45:59;8.20;;;4.40;;
1366;SDS011;16877;48.810;9.282;2023-04-03T13:48:36;7.50;;;3.43;;
1366;SDS011;16877;48.810;9.282;2023-04-03T13:51:15;6.33;;;3.43;;
1366;SDS011;16877;48.810;9.282;2023-04-03T13:53:55;6.67;;;3.10;;
1366;SDS011;16877;48.810;9.282;2023-04-03T13:56:31;6.00;;;2.53;;
1366;SDS011;16877;48.810;9.282;2023-04-03T14:01:55;3.70;;;2.50;;
1366;SDS011;16877;48.810;9.282;2023-04-03T14:04:50;2.90;;;2.00;;
1366;SDS011;16877;48.810;9.282;2023-04-03T14:07:25;5.07;;;1.87;;
1366;SDS011;16877;48.810;9.282;2023-04-03T14:09:56;3.60;;;2.00;;
1366;SDS011;16877;48.810;9.282;2023-04-03T14:12:31;4.80;;;2.10;;
1366;SDS011;16877;48.810;9.282;2023-04-03T14:15:04;4.33;;;2.20;;
1366;SDS011;16877;48.810;9.282;2023-04-03T14:17:40;3.03;;;2.10;;
1366;SDS011;16877;48.810;9.282;2023-04-03T14:20:14;3.70;;;2.20;;
1366;SDS011;16877;48.810;9.282;2023-04-03T14:22:57;2.83;;;1.83;;
1366;SDS011;16877;48.810;9.282;2023-04-03T14:25:30;3.43;;;1.93;;
1366;SDS011;16877;48.810;9.282;2023-04-03T14:27:57;3.10;;;1.80;;
1366;SDS011;16877;48.810;9.282;2023-04-03T14:30:41;3.90;;;1.70;;
1366;SDS011;16877;48.810;9.282;2023-04-03T14:33:15;2.73;;;1.73;;
1366;SDS011;16877;48.810;9.282;2023-04-03T14:35:49;3.40;;;1.77;;
1366;SDS011;16877;48.810;9.282;2023-04-03T14:38:24;4.07;;;1.90;;
1366;SDS011;16877;48.810;9.282;2023-04-03T14:40:54;4.03;;;1.70;;
1366;SDS011;16877;48.810;9.282;2023-04-03T14:43:45;2.90;;;1.67;;
1366;SDS011;16877;48.810;9.282;2023-04-03T14:46:47;4.10;;;2.30;;
1366;SDS011;16877;48.810;9.282;2023-04-03T14:49:19;5.50;;;1.97;;
1366;SDS011;16877;48.810;9.282;2023-04-03T14:51:51;3.73;;;1.70;;
1366;SDS011;16877;48.810;9.282;2023-04-03T14:57:13;3.63;;;2.20;;
1366;SDS011;16877;48.810;9.282;2023-04-03T15:00:11;4.00;;;2.33;;
1366;SDS011;16877;48.810;9.282;2023-04-03T15:03:12;3.53;;;1.83;;
1366;SDS011;16877;48.810;9.282;2023-04-03T15:05:42;2.97;;;1.70;;
1366;SDS011;16877;48.810;9.282;2023-04-03T15:08:18;2.80;;;1.87;;
1366;SDS011;16877;48.810;9.282;2023-04-03T15:10:57;4.47;;;2.13;;
1366;SDS011;16877;48.810;9.282;2023-04-03T15:13:31;2.80;;;1.60;;
1366;SDS011;16877;48.810;9.282;2023-04-03T15:16:01;3.27;;;2.00;;
1366;SDS011;16877;48.810;9.282;2023-04-03T15:18:35;3.63;;;2.00;;
1366;SDS011;16877;48.810;9.282;2023-04-03T15:21:13;3.83;;;1.77;;
1366;SDS011;16877;48.810;9.282;2023-04-03T15:23:52;3.50;;;1.60;;
1366;SDS011;16877;48.810;9.282;2023-04-03T15:26:29;3.00;;;1.70;;
1366;SDS011;16877;48.810;9.282;2023-04-03T15:28:59;4.47;;;1.87;;
1366;SDS011;16877;48.810;9.282;2023-04-03T15:31:29;3.00;;;2.00;;
1366;SDS011;16877;48.810;9.282;2023-04-03T15:34:14;3.20;;;1.60;;
1366;SDS011;16877;48.810;9.282;2023-04-03T15:36:42;3.27;;;1.80;;
1366;SDS011;16877;48.810;9.282;2023-04-03T15:39:09;10.23;;;6.00;;
1366;SDS011;16877;48.810;9.282;2023-04-03T15:41:43;12.30;;;6.60;;
1366;SDS011;16877;48.810;9.282;2023-04-03T15:44:34;9.30;;;5.67;;
1366;SDS011;16877;48.810;9.282;2023-04-03T15:47:08;7.80;;;5.50;;
1366;SDS011;16877;48.810;9.282;2023-04-03T15:49:54;7.43;;;5.20;;
1366;SDS011;16877;48.810;9.282;2023-04-03T15:52:23;6.03;;;4.57;;
1366;SDS011;16877;48.810;9.282;2023-04-03T15:54:54;9.27;;;4.97;;
1366;SDS011;16877;48.810;9.282;2023-04-03T15:57:23;7.67;;;5.43;;
1366;SDS011;16877;48.810;9.282;2023-04-03T15:59:51;6.50;;;4.90;;
1366;SDS011;16877;48.810;9.282;2023-04-03T16:02:19;6.57;;;4.37;;
1366;SDS011;16877;48.810;9.282;2023-04-03T16:04:47;6.27;;;4.57;;
1366;SDS011;16877;48.810;9.282;2023-04-03T16:07:14;6.10;;;4.80;;
1366;SDS011;16877;48.810;9.282;2023-04-03T16:09:45;7.57;;;4.97;;
1366;SDS011;16877;48.810;9.282;2023-04-03T16:12:14;5.80;;;4.80;;
1366;SDS011;16877;48.810;9.282;2023-04-03T16:17:32;6.43;;;4.30;;
1366;SDS011;16877;48.810;9.282;2023-04-03T16:20:08;6.10;;;4.20;;